KCKM/CKM METAR and TAF weather

Enter ICAO airport designator
Station Type Date Time Source
KCKM METAR 2023/02/04 02:35 UTC NOAA

KCKM 040235Z AUTO 04007KT 9SM CLR M01/M01 A3056 RMK A01


Station Type Date Time Source
KCKM Decoded METAR 2023/02/04 02:35 UTC NOAA

Station name not available
Feb 03, 2023 - 09:35 PM EST / 2023.02.04 0235 UTC
Wind: from the NE (040 degrees) at 8 MPH (7 KT):0
Visibility: 9 mile(s):0
Sky conditions: clear
Temperature: 30 F (-1 C)
Windchill: 23 F (-5 C):1
Dew Point: 30 F (-1 C)
Relative Humidity: 100%
Pressure (altimeter): 30.56 in. Hg (1034 hPa)
ob: KCKM 040235Z AUTO 04007KT 9SM CLR M01/M01 A3056 RMK A01
cycle: 2

Station Type Date Time Source
KCKM TAF UTC NOAA

Error!

Example: see airport list